sensor_id;sensor_type;location;lat;lon;timestamp;P1;durP1;ratioP1;P2;durP2;ratioP2
9424;SDS011;17139;52.140;11.636;2023-03-12T00:01:16;1.20;;;1.17;;
9424;SDS011;17139;52.140;11.636;2023-03-12T00:03:44;2.60;;;1.37;;
9424;SDS011;17139;52.140;11.636;2023-03-12T00:06:12;1.07;;;1.07;;
9424;SDS011;17139;52.140;11.636;2023-03-12T00:08:39;0.80;;;0.80;;
9424;SDS011;17139;52.140;11.636;2023-03-12T00:11:07;1.00;;;0.87;;
9424;SDS011;17139;52.140;11.636;2023-03-12T00:13:36;0.70;;;0.70;;
9424;SDS011;17139;52.140;11.636;2023-03-12T00:16:08;0.93;;;0.83;;
9424;SDS011;17139;52.140;11.636;2023-03-12T00:18:38;1.33;;;1.00;;
9424;SDS011;17139;52.140;11.636;2023-03-12T00:21:05;0.70;;;0.70;;
9424;SDS011;17139;52.140;11.636;2023-03-12T00:23:33;0.87;;;0.87;;
9424;SDS011;17139;52.140;11.636;2023-03-12T00:26:00;1.20;;;1.20;;
9424;SDS011;17139;52.140;11.636;2023-03-12T00:28:29;1.30;;;0.80;;
9424;SDS011;17139;52.140;11.636;2023-03-12T00:30:56;0.70;;;0.70;;
9424;SDS011;17139;52.140;11.636;2023-03-12T00:33:25;0.80;;;0.80;;
9424;SDS011;17139;52.140;11.636;2023-03-12T00:35:59;13.83;;;1.20;;
9424;SDS011;17139;52.140;11.636;2023-03-12T00:38:26;0.70;;;0.70;;
9424;SDS011;17139;52.140;11.636;2023-03-12T00:40:53;2.43;;;0.90;;
9424;SDS011;17139;52.140;11.636;2023-03-12T00:43:20;1.13;;;1.13;;
9424;SDS011;17139;52.140;11.636;2023-03-12T00:45:47;0.90;;;0.90;;
9424;SDS011;17139;52.140;11.636;2023-03-12T00:48:14;0.57;;;0.57;;
9424;SDS011;17139;52.140;11.636;2023-03-12T00:50:42;1.57;;;1.07;;
9424;SDS011;17139;52.140;11.636;2023-03-12T00:53:09;1.42;;;1.20;;
9424;SDS011;17139;52.140;11.636;2023-03-12T00:55:36;1.20;;;0.87;;
9424;SDS011;17139;52.140;11.636;2023-03-12T00:58:03;0.83;;;0.83;;
9424;SDS011;17139;52.140;11.636;2023-03-12T01:00:30;0.63;;;0.63;;
9424;SDS011;17139;52.140;11.636;2023-03-12T01:02:57;4.53;;;0.53;;
9424;SDS011;17139;52.140;11.636;2023-03-12T01:05:24;0.60;;;0.60;;
9424;SDS011;17139;52.140;11.636;2023-03-12T01:07:53;4.07;;;0.90;;
9424;SDS011;17139;52.140;11.636;2023-03-12T01:10:20;0.40;;;0.40;;
9424;SDS011;17139;52.140;11.636;2023-03-12T01:12:48;0.80;;;0.80;;
9424;SDS011;17139;52.140;11.636;2023-03-12T01:15:16;0.70;;;0.70;;
9424;SDS011;17139;52.140;11.636;2023-03-12T01:17:43;1.00;;;1.00;;
9424;SDS011;17139;52.140;11.636;2023-03-12T01:20:10;2.08;;;1.27;;
9424;SDS011;17139;52.140;11.636;2023-03-12T01:22:38;0.80;;;0.80;;
9424;SDS011;17139;52.140;11.636;2023-03-12T01:25:07;0.73;;;0.73;;
9424;SDS011;17139;52.140;11.636;2023-03-12T01:27:34;0.87;;;0.87;;
9424;SDS011;17139;52.140;11.636;2023-03-12T01:30:02;1.00;;;1.00;;
9424;SDS011;17139;52.140;11.636;2023-03-12T01:32:30;3.53;;;1.40;;
9424;SDS011;17139;52.140;11.636;2023-03-12T01:34:57;0.37;;;0.37;;
9424;SDS011;17139;52.140;11.636;2023-03-12T01:37:24;6.33;;;0.70;;
9424;SDS011;17139;52.140;11.636;2023-03-12T01:39:51;0.53;;;0.53;;
9424;SDS011;17139;52.140;11.636;2023-03-12T01:42:20;3.38;;;0.85;;
9424;SDS011;17139;52.140;11.636;2023-03-12T01:44:48;1.80;;;0.87;;
9424;SDS011;17139;52.140;11.636;2023-03-12T01:47:16;9.23;;;0.70;;
9424;SDS011;17139;52.140;11.636;2023-03-12T01:49:43;1.27;;;1.17;;
9424;SDS011;17139;52.140;11.636;2023-03-12T01:52:12;0.60;;;0.60;;
9424;SDS011;17139;52.140;11.636;2023-03-12T01:54:42;1.02;;;1.02;;
9424;SDS011;17139;52.140;11.636;2023-03-12T01:57:14;1.20;;;0.70;;
9424;SDS011;17139;52.140;11.636;2023-03-12T01:59:46;0.70;;;0.70;;
9424;SDS011;17139;52.140;11.636;2023-03-12T02:02:15;0.50;;;0.50;;
9424;SDS011;17139;52.140;11.636;2023-03-12T02:04:44;0.60;;;0.60;;
9424;SDS011;17139;52.140;11.636;2023-03-12T02:07:13;0.60;;;0.60;;
9424;SDS011;17139;52.140;11.636;2023-03-12T02:09:42;0.70;;;0.70;;
9424;SDS011;17139;52.140;11.636;2023-03-12T02:12:11;0.50;;;0.50;;
9424;SDS011;17139;52.140;11.636;2023-03-12T02:14:38;0.80;;;0.80;;
9424;SDS011;17139;52.140;11.636;2023-03-12T02:17:06;0.80;;;0.80;;
9424;SDS011;17139;52.140;11.636;2023-03-12T02:19:37;0.63;;;0.50;;
9424;SDS011;17139;52.140;11.636;2023-03-12T02:22:09;0.80;;;0.80;;
9424;SDS011;17139;52.140;11.636;2023-03-12T02:24:38;1.15;;;1.05;;
9424;SDS011;17139;52.140;11.636;2023-03-12T02:27:11;1.65;;;1.15;;
9424;SDS011;17139;52.140;11.636;2023-03-12T02:29:39;0.87;;;0.70;;
9424;SDS011;17139;52.140;11.636;2023-03-12T02:32:11;0.60;;;0.60;;
9424;SDS011;17139;52.140;11.636;2023-03-12T02:34:43;0.70;;;0.70;;
9424;SDS011;17139;52.140;11.636;2023-03-12T02:37:12;1.50;;;0.90;;
9424;SDS011;17139;52.140;11.636;2023-03-12T02:39:39;1.10;;;1.00;;
9424;SDS011;17139;52.140;11.636;2023-03-12T02:42:07;0.50;;;0.50;;
9424;SDS011;17139;52.140;11.636;2023-03-12T02:44:36;1.30;;;1.20;;
9424;SDS011;17139;52.140;11.636;2023-03-12T02:47:03;1.67;;;1.00;;
9424;SDS011;17139;52.140;11.636;2023-03-12T02:49:32;5.67;;;1.33;;
9424;SDS011;17139;52.140;11.636;2023-03-12T02:52:00;1.47;;;0.73;;
9424;SDS011;17139;52.140;11.636;2023-03-12T02:54:27;3.00;;;0.70;;
9424;SDS011;17139;52.140;11.636;2023-03-12T02:56:56;2.50;;;1.17;;
9424;SDS011;17139;52.140;11.636;2023-03-12T02:59:23;1.00;;;1.00;;
9424;SDS011;17139;52.140;11.636;2023-03-12T03:01:53;0.67;;;0.67;;
9424;SDS011;17139;52.140;11.636;2023-03-12T03:04:21;0.70;;;0.70;;
9424;SDS011;17139;52.140;11.636;2023-03-12T03:06:49;0.83;;;0.83;;
9424;SDS011;17139;52.140;11.636;2023-03-12T03:09:16;0.83;;;0.83;;
9424;SDS011;17139;52.140;11.636;2023-03-12T03:11:43;0.70;;;0.70;;
9424;SDS011;17139;52.140;11.636;2023-03-12T03:14:10;0.97;;;0.97;;
9424;SDS011;17139;52.140;11.636;2023-03-12T03:16:40;6.30;;;0.90;;
9424;SDS011;17139;52.140;11.636;2023-03-12T03:19:09;0.67;;;0.67;;
9424;SDS011;17139;52.140;11.636;2023-03-12T03:21:36;5.37;;;0.90;;
9424;SDS011;17139;52.140;11.636;2023-03-12T03:24:04;1.13;;;1.02;;
9424;SDS011;17139;52.140;11.636;2023-03-12T03:26:31;0.87;;;0.87;;
9424;SDS011;17139;52.140;11.636;2023-03-12T03:28:58;0.70;;;0.70;;
9424;SDS011;17139;52.140;11.636;2023-03-12T03:31:25;4.63;;;0.70;;
9424;SDS011;17139;52.140;11.636;2023-03-12T03:33:52;0.80;;;0.80;;
9424;SDS011;17139;52.140;11.636;2023-03-12T03:36:21;0.70;;;0.70;;
9424;SDS011;17139;52.140;11.636;2023-03-12T03:38:48;0.83;;;0.83;;
9424;SDS011;17139;52.140;11.636;2023-03-12T03:41:15;0.73;;;0.60;;
9424;SDS011;17139;52.140;11.636;2023-03-12T03:43:43;0.67;;;0.67;;
9424;SDS011;17139;52.140;11.636;2023-03-12T03:46:10;0.90;;;0.90;;
9424;SDS011;17139;52.140;11.636;2023-03-12T03:48:38;0.50;;;0.50;;
9424;SDS011;17139;52.140;11.636;2023-03-12T03:51:06;1.23;;;1.20;;
9424;SDS011;17139;52.140;11.636;2023-03-12T03:53:36;0.90;;;0.90;;
9424;SDS011;17139;52.140;11.636;2023-03-12T03:56:04;0.60;;;0.60;;
9424;SDS011;17139;52.140;11.636;2023-03-12T03:58:32;8.13;;;0.70;;
9424;SDS011;17139;52.140;11.636;2023-03-12T04:00:59;2.33;;;1.60;;
9424;SDS011;17139;52.140;11.636;2023-03-12T04:03:26;4.07;;;1.17;;
9424;SDS011;17139;52.140;11.636;2023-03-12T04:05:54;0.67;;;0.67;;
9424;SDS011;17139;52.140;11.636;2023-03-12T04:08:21;1.03;;;1.03;;
9424;SDS011;17139;52.140;11.636;2023-03-12T04:10:50;0.60;;;0.60;;
9424;SDS011;17139;52.140;11.636;2023-03-12T04:13:17;1.13;;;0.70;;
9424;SDS011;17139;52.140;11.636;2023-03-12T04:15:45;0.77;;;0.77;;
9424;SDS011;17139;52.140;11.636;2023-03-12T04:18:13;1.20;;;1.20;;
9424;SDS011;17139;52.140;11.636;2023-03-12T04:20:40;1.13;;;1.03;;
9424;SDS011;17139;52.140;11.636;2023-03-12T04:23:07;0.70;;;0.70;;
9424;SDS011;17139;52.140;11.636;2023-03-12T04:25:34;0.60;;;0.60;;
9424;SDS011;17139;52.140;11.636;2023-03-12T04:28:04;1.07;;;0.90;;
9424;SDS011;17139;52.140;11.636;2023-03-12T04:30:32;0.60;;;0.60;;
9424;SDS011;17139;52.140;11.636;2023-03-12T04:32:59;1.00;;;1.00;;
9424;SDS011;17139;52.140;11.636;2023-03-12T04:35:26;3.03;;;1.38;;
9424;SDS011;17139;52.140;11.636;2023-03-12T04:37:53;0.80;;;0.80;;
9424;SDS011;17139;52.140;11.636;2023-03-12T04:40:20;1.07;;;1.07;;
9424;SDS011;17139;52.140;11.636;2023-03-12T04:42:47;0.63;;;0.63;;
9424;SDS011;17139;52.140;11.636;2023-03-12T04:45:16;0.53;;;0.53;;
9424;SDS011;17139;52.140;11.636;2023-03-12T04:47:43;0.73;;;0.67;;
9424;SDS011;17139;52.140;11.636;2023-03-12T04:50:10;0.50;;;0.50;;
9424;SDS011;17139;52.140;11.636;2023-03-12T04:52:38;0.60;;;0.60;;
9424;SDS011;17139;52.140;11.636;2023-03-12T04:55:05;0.43;;;0.43;;
9424;SDS011;17139;52.140;11.636;2023-03-12T04:57:33;3.77;;;1.30;;
9424;SDS011;17139;52.140;11.636;2023-03-12T05:00:01;0.60;;;0.60;;
9424;SDS011;17139;52.140;11.636;2023-03-12T05:02:36;0.60;;;0.60;;
9424;SDS011;17139;52.140;11.636;2023-03-12T05:05:03;1.50;;;0.80;;
9424;SDS011;17139;52.140;11.636;2023-03-12T05:07:31;0.50;;;0.50;;
9424;SDS011;17139;52.140;11.636;2023-03-12T05:09:58;0.47;;;0.47;;
9424;SDS011;17139;52.140;11.636;2023-03-12T05:12:25;0.43;;;0.43;;
9424;SDS011;17139;52.140;11.636;2023-03-12T05:14:52;0.70;;;0.70;;
9424;SDS011;17139;52.140;11.636;2023-03-12T05:17:19;1.00;;;1.00;;
9424;SDS011;17139;52.140;11.636;2023-03-12T05:19:48;1.07;;;0.67;;
9424;SDS011;17139;52.140;11.636;2023-03-12T05:22:15;0.80;;;0.80;;
9424;SDS011;17139;52.140;11.636;2023-03-12T05:24:42;1.00;;;1.00;;
9424;SDS011;17139;52.140;11.636;2023-03-12T05:27:09;0.80;;;0.80;;
9424;SDS011;17139;52.140;11.636;2023-03-12T05:29:37;0.50;;;0.50;;
9424;SDS011;17139;52.140;11.636;2023-03-12T05:32:04;0.50;;;0.50;;
9424;SDS011;17139;52.140;11.636;2023-03-12T05:34:32;1.03;;;1.03;;
9424;SDS011;17139;52.140;11.636;2023-03-12T05:37:00;0.97;;;0.97;;
9424;SDS011;17139;52.140;11.636;2023-03-12T05:39:27;1.80;;;1.10;;
9424;SDS011;17139;52.140;11.636;2023-03-12T05:41:54;0.50;;;0.50;;
9424;SDS011;17139;52.140;11.636;2023-03-12T05:44:22;0.87;;;0.87;;
9424;SDS011;17139;52.140;11.636;2023-03-12T05:46:49;1.20;;;0.73;;
9424;SDS011;17139;52.140;11.636;2023-03-12T05:49:17;2.00;;;1.17;;
9424;SDS011;17139;52.140;11.636;2023-03-12T05:51:45;0.80;;;0.80;;
9424;SDS011;17139;52.140;11.636;2023-03-12T05:54:14;3.10;;;1.20;;
9424;SDS011;17139;52.140;11.636;2023-03-12T05:56:41;0.83;;;0.83;;
9424;SDS011;17139;52.140;11.636;2023-03-12T05:59:09;0.97;;;0.97;;
9424;SDS011;17139;52.140;11.636;2023-03-12T06:01:37;1.07;;;1.07;;
9424;SDS011;17139;52.140;11.636;2023-03-12T06:04:04;0.70;;;0.70;;
9424;SDS011;17139;52.140;11.636;2023-03-12T06:06:32;0.57;;;0.57;;
9424;SDS011;17139;52.140;11.636;2023-03-12T06:09:01;0.50;;;0.50;;
9424;SDS011;17139;52.140;11.636;2023-03-12T06:11:30;0.80;;;0.80;;
9424;SDS011;17139;52.140;11.636;2023-03-12T06:14:00;1.20;;;0.87;;
9424;SDS011;17139;52.140;11.636;2023-03-12T06:16:27;0.83;;;0.83;;
9424;SDS011;17139;52.140;11.636;2023-03-12T06:18:55;1.83;;;0.90;;
9424;SDS011;17139;52.140;11.636;2023-03-12T06:21:24;3.10;;;1.05;;
9424;SDS011;17139;52.140;11.636;2023-03-12T06:23:52;1.17;;;1.17;;
9424;SDS011;17139;52.140;11.636;2023-03-12T06:26:20;1.20;;;1.20;;
9424;SDS011;17139;52.140;11.636;2023-03-12T06:28:49;1.70;;;0.90;;
9424;SDS011;17139;52.140;11.636;2023-03-12T06:31:16;0.97;;;0.97;;
9424;SDS011;17139;52.140;11.636;2023-03-12T06:33:44;1.83;;;1.37;;
9424;SDS011;17139;52.140;11.636;2023-03-12T06:36:11;2.37;;;0.90;;
9424;SDS011;17139;52.140;11.636;2023-03-12T06:38:39;0.73;;;0.73;;
9424;SDS011;17139;52.140;11.636;2023-03-12T06:41:07;1.00;;;1.00;;
9424;SDS011;17139;52.140;11.636;2023-03-12T06:43:36;0.73;;;0.73;;
9424;SDS011;17139;52.140;11.636;2023-03-12T06:46:06;0.73;;;0.73;;
9424;SDS011;17139;52.140;11.636;2023-03-12T06:48:35;0.80;;;0.80;;
9424;SDS011;17139;52.140;11.636;2023-03-12T06:51:05;2.95;;;1.67;;
9424;SDS011;17139;52.140;11.636;2023-03-12T06:53:32;1.98;;;1.58;;
9424;SDS011;17139;52.140;11.636;2023-03-12T06:56:00;0.90;;;0.90;;
9424;SDS011;17139;52.140;11.636;2023-03-12T06:58:27;1.07;;;1.07;;
9424;SDS011;17139;52.140;11.636;2023-03-12T07:00:54;0.93;;;0.93;;
9424;SDS011;17139;52.140;11.636;2023-03-12T07:03:22;1.30;;;1.17;;
9424;SDS011;17139;52.140;11.636;2023-03-12T07:05:54;0.70;;;0.70;;
9424;SDS011;17139;52.140;11.636;2023-03-12T07:08:21;1.13;;;0.93;;
9424;SDS011;17139;52.140;11.636;2023-03-12T07:10:49;0.97;;;0.97;;
9424;SDS011;17139;52.140;11.636;2023-03-12T07:13:16;0.97;;;0.97;;
9424;SDS011;17139;52.140;11.636;2023-03-12T07:15:43;0.80;;;0.80;;
9424;SDS011;17139;52.140;11.636;2023-03-12T07:18:10;1.00;;;1.00;;
9424;SDS011;17139;52.140;11.636;2023-03-12T07:20:40;0.90;;;0.90;;
9424;SDS011;17139;52.140;11.636;2023-03-12T07:23:08;1.40;;;1.30;;
9424;SDS011;17139;52.140;11.636;2023-03-12T07:25:36;0.80;;;0.80;;
9424;SDS011;17139;52.140;11.636;2023-03-12T07:28:04;1.30;;;1.20;;
9424;SDS011;17139;52.140;11.636;2023-03-12T07:30:31;1.27;;;1.00;;
9424;SDS011;17139;52.140;11.636;2023-03-12T07:32:59;1.87;;;0.87;;
9424;SDS011;17139;52.140;11.636;2023-03-12T07:35:26;0.83;;;0.83;;
9424;SDS011;17139;52.140;11.636;2023-03-12T07:37:56;1.15;;;1.15;;
9424;SDS011;17139;52.140;11.636;2023-03-12T07:40:24;1.00;;;1.00;;
9424;SDS011;17139;52.140;11.636;2023-03-12T07:42:51;1.10;;;1.10;;
9424;SDS011;17139;52.140;11.636;2023-03-12T07:45:18;3.00;;;1.37;;
9424;SDS011;17139;52.140;11.636;2023-03-12T07:47:46;1.27;;;1.27;;
9424;SDS011;17139;52.140;11.636;2023-03-12T07:50:13;1.00;;;1.00;;
9424;SDS011;17139;52.140;11.636;2023-03-12T07:52:41;1.33;;;1.33;;
9424;SDS011;17139;52.140;11.636;2023-03-12T07:55:09;2.45;;;1.80;;
9424;SDS011;17139;52.140;11.636;2023-03-12T07:57:37;3.97;;;1.88;;
9424;SDS011;17139;52.140;11.636;2023-03-12T08:00:05;1.47;;;1.43;;
9424;SDS011;17139;52.140;11.636;2023-03-12T08:02:34;1.20;;;1.20;;
9424;SDS011;17139;52.140;11.636;2023-03-12T08:05:01;1.13;;;1.13;;
9424;SDS011;17139;52.140;11.636;2023-03-12T08:07:29;1.90;;;1.80;;
9424;SDS011;17139;52.140;11.636;2023-03-12T08:09:58;1.43;;;1.33;;
9424;SDS011;17139;52.140;11.636;2023-03-12T08:12:27;1.20;;;1.20;;
9424;SDS011;17139;52.140;11.636;2023-03-12T08:14:55;2.10;;;1.30;;
9424;SDS011;17139;52.140;11.636;2023-03-12T08:17:22;1.70;;;1.60;;
9424;SDS011;17139;52.140;11.636;2023-03-12T08:19:49;0.83;;;0.83;;
9424;SDS011;17139;52.140;11.636;2023-03-12T08:22:16;2.03;;;1.23;;
9424;SDS011;17139;52.140;11.636;2023-03-12T08:24:43;2.40;;;1.83;;
9424;SDS011;17139;52.140;11.636;2023-03-12T08:27:10;1.53;;;1.53;;
9424;SDS011;17139;52.140;11.636;2023-03-12T08:29:38;1.20;;;1.20;;
9424;SDS011;17139;52.140;11.636;2023-03-12T08:32:06;1.40;;;1.40;;
9424;SDS011;17139;52.140;11.636;2023-03-12T08:34:34;1.27;;;1.27;;
9424;SDS011;17139;52.140;11.636;2023-03-12T08:37:01;1.30;;;1.23;;
9424;SDS011;17139;52.140;11.636;2023-03-12T08:39:29;1.37;;;1.27;;
9424;SDS011;17139;52.140;11.636;2023-03-12T08:41:56;1.30;;;1.30;;
9424;SDS011;17139;52.140;11.636;2023-03-12T08:44:23;1.73;;;1.43;;
9424;SDS011;17139;52.140;11.636;2023-03-12T08:46:52;1.88;;;1.60;;
9424;SDS011;17139;52.140;11.636;2023-03-12T08:49:19;3.83;;;2.00;;
9424;SDS011;17139;52.140;11.636;2023-03-12T08:51:47;1.70;;;1.60;;
9424;SDS011;17139;52.140;11.636;2023-03-12T08:54:15;5.13;;;1.90;;
9424;SDS011;17139;52.140;11.636;2023-03-12T08:56:42;2.42;;;1.58;;
9424;SDS011;17139;52.140;11.636;2023-03-12T08:59:11;1.30;;;1.30;;
9424;SDS011;17139;52.140;11.636;2023-03-12T09:01:39;1.40;;;1.17;;
9424;SDS011;17139;52.140;11.636;2023-03-12T09:04:07;5.67;;;1.93;;
9424;SDS011;17139;52.140;11.636;2023-03-12T09:06:34;1.70;;;1.60;;
9424;SDS011;17139;52.140;11.636;2023-03-12T09:09:02;1.37;;;1.37;;
9424;SDS011;17139;52.140;11.636;2023-03-12T09:11:30;1.40;;;1.40;;
9424;SDS011;17139;52.140;11.636;2023-03-12T09:13:57;2.33;;;1.67;;
9424;SDS011;17139;52.140;11.636;2023-03-12T09:16:25;1.60;;;1.50;;
9424;SDS011;17139;52.140;11.636;2023-03-12T09:18:52;1.75;;;1.65;;
9424;SDS011;17139;52.140;11.636;2023-03-12T09:21:21;9.57;;;1.60;;
9424;SDS011;17139;52.140;11.636;2023-03-12T09:23:48;2.10;;;1.13;;
9424;SDS011;17139;52.140;11.636;2023-03-12T09:26:15;1.40;;;1.30;;
9424;SDS011;17139;52.140;11.636;2023-03-12T09:28:42;1.60;;;1.50;;
9424;SDS011;17139;52.140;11.636;2023-03-12T09:31:09;1.97;;;1.70;;
9424;SDS011;17139;52.140;11.636;2023-03-12T09:33:37;2.00;;;1.30;;
9424;SDS011;17139;52.140;11.636;2023-03-12T09:36:04;2.50;;;1.30;;
9424;SDS011;17139;52.140;11.636;2023-03-12T09:38:33;1.03;;;1.00;;
9424;SDS011;17139;52.140;11.636;2023-03-12T09:41:02;3.53;;;1.47;;
9424;SDS011;17139;52.140;11.636;2023-03-12T09:43:32;3.17;;;1.70;;
9424;SDS011;17139;52.140;11.636;2023-03-12T09:46:02;4.22;;;1.75;;
9424;SDS011;17139;52.140;11.636;2023-03-12T09:48:35;2.00;;;1.40;;
9424;SDS011;17139;52.140;11.636;2023-03-12T09:51:03;1.83;;;1.60;;
9424;SDS011;17139;52.140;11.636;2023-03-12T09:53:36;2.40;;;1.30;;
9424;SDS011;17139;52.140;11.636;2023-03-12T09:56:12;1.33;;;1.27;;
9424;SDS011;17139;52.140;11.636;2023-03-12T09:58:41;1.40;;;1.40;;
9424;SDS011;17139;52.140;11.636;2023-03-12T10:01:16;1.30;;;1.20;;
9424;SDS011;17139;52.140;11.636;2023-03-12T10:04:13;1.37;;;1.30;;
9424;SDS011;17139;52.140;11.636;2023-03-12T10:06:47;3.10;;;1.43;;
9424;SDS011;17139;52.140;11.636;2023-03-12T10:09:26;1.90;;;1.50;;
9424;SDS011;17139;52.140;11.636;2023-03-12T10:12:02;1.60;;;1.50;;
9424;SDS011;17139;52.140;11.636;2023-03-12T10:14:41;1.17;;;1.17;;
9424;SDS011;17139;52.140;11.636;2023-03-12T10:17:22;1.10;;;1.10;;
9424;SDS011;17139;52.140;11.636;2023-03-12T10:20:09;1.20;;;1.00;;
9424;SDS011;17139;52.140;11.636;2023-03-12T10:23:03;0.90;;;0.90;;
9424;SDS011;17139;52.140;11.636;2023-03-12T10:25:39;1.20;;;1.20;;
9424;SDS011;17139;52.140;11.636;2023-03-12T10:28:11;1.03;;;1.03;;
9424;SDS011;17139;52.140;11.636;2023-03-12T10:30:44;0.95;;;0.95;;
9424;SDS011;17139;52.140;11.636;2023-03-12T10:33:16;1.27;;;1.17;;
9424;SDS011;17139;52.140;11.636;2023-03-12T10:35:45;1.10;;;1.10;;
9424;SDS011;17139;52.140;11.636;2023-03-12T10:38:13;3.60;;;1.83;;
9424;SDS011;17139;52.140;11.636;2023-03-12T10:40:45;1.83;;;1.60;;
9424;SDS011;17139;52.140;11.636;2023-03-12T10:43:13;2.03;;;1.50;;
9424;SDS011;17139;52.140;11.636;2023-03-12T10:45:42;1.30;;;1.10;;
9424;SDS011;17139;52.140;11.636;2023-03-12T10:48:17;1.27;;;1.27;;
9424;SDS011;17139;52.140;11.636;2023-03-12T10:50:58;1.83;;;1.45;;
9424;SDS011;17139;52.140;11.636;2023-03-12T10:53:27;2.17;;;1.92;;
9424;SDS011;17139;52.140;11.636;2023-03-12T10:55:58;1.87;;;1.40;;
9424;SDS011;17139;52.140;11.636;2023-03-12T10:58:30;2.33;;;1.30;;
9424;SDS011;17139;52.140;11.636;2023-03-12T11:00:59;1.37;;;1.30;;
9424;SDS011;17139;52.140;11.636;2023-03-12T11:03:27;1.20;;;1.20;;
9424;SDS011;17139;52.140;11.636;2023-03-12T11:05:55;1.77;;;1.60;;
9424;SDS011;17139;52.140;11.636;2023-03-12T11:08:25;1.37;;;1.27;;
9424;SDS011;17139;52.140;11.636;2023-03-12T11:10:53;1.33;;;1.23;;
9424;SDS011;17139;52.140;11.636;2023-03-12T11:13:29;1.90;;;1.45;;
9424;SDS011;17139;52.140;11.636;2023-03-12T11:15:58;1.57;;;1.57;;
9424;SDS011;17139;52.140;11.636;2023-03-12T11:18:33;1.47;;;1.40;;
9424;SDS011;17139;52.140;11.636;2023-03-12T11:21:14;1.67;;;1.57;;
9424;SDS011;17139;52.140;11.636;2023-03-12T11:23:43;1.60;;;1.58;;
9424;SDS011;17139;52.140;11.636;2023-03-12T11:26:30;1.30;;;1.20;;
9424;SDS011;17139;52.140;11.636;2023-03-12T11:29:02;1.43;;;1.43;;
9424;SDS011;17139;52.140;11.636;2023-03-12T11:31:32;4.17;;;1.30;;
9424;SDS011;17139;52.140;11.636;2023-03-12T11:34:04;7.67;;;1.73;;
9424;SDS011;17139;52.140;11.636;2023-03-12T11:36:38;1.40;;;1.40;;
9424;SDS011;17139;52.140;11.636;2023-03-12T11:39:17;1.20;;;1.20;;
9424;SDS011;17139;52.140;11.636;2023-03-12T11:42:00;1.57;;;1.57;;
9424;SDS011;17139;52.140;11.636;2023-03-12T11:44:39;1.87;;;1.77;;
9424;SDS011;17139;52.140;11.636;2023-03-12T11:47:18;3.00;;;1.83;;
9424;SDS011;17139;52.140;11.636;2023-03-12T11:50:02;2.00;;;1.90;;
9424;SDS011;17139;52.140;11.636;2023-03-12T11:52:42;1.67;;;1.57;;
9424;SDS011;17139;52.140;11.636;2023-03-12T11:55:17;1.67;;;1.67;;
9424;SDS011;17139;52.140;11.636;2023-03-12T11:58:01;1.73;;;1.63;;
9424;SDS011;17139;52.140;11.636;2023-03-12T12:00:46;1.27;;;1.13;;
9424;SDS011;17139;52.140;11.636;2023-03-12T12:03:27;1.23;;;1.23;;
9424;SDS011;17139;52.140;11.636;2023-03-12T12:06:16;2.30;;;1.30;;
9424;SDS011;17139;52.140;11.636;2023-03-12T12:09:07;1.50;;;1.50;;
9424;SDS011;17139;52.140;11.636;2023-03-12T12:11:43;1.57;;;1.47;;
9424;SDS011;17139;52.140;11.636;2023-03-12T12:14:21;1.77;;;1.57;;
9424;SDS011;17139;52.140;11.636;2023-03-12T12:17:03;1.17;;;1.17;;
9424;SDS011;17139;52.140;11.636;2023-03-12T12:19:43;2.33;;;1.90;;
9424;SDS011;17139;52.140;11.636;2023-03-12T12:22:28;2.33;;;1.47;;
9424;SDS011;17139;52.140;11.636;2023-03-12T12:25:17;1.50;;;1.20;;
9424;SDS011;17139;52.140;11.636;2023-03-12T12:27:53;1.40;;;1.30;;
9424;SDS011;17139;52.140;11.636;2023-03-12T12:30:41;1.47;;;1.47;;
9424;SDS011;17139;52.140;11.636;2023-03-12T12:33:24;1.50;;;1.40;;
9424;SDS011;17139;52.140;11.636;2023-03-12T12:36:01;2.10;;;1.23;;
9424;SDS011;17139;52.140;11.636;2023-03-12T12:38:31;1.53;;;1.43;;
9424;SDS011;17139;52.140;11.636;2023-03-12T12:41:02;1.30;;;1.30;;
9424;SDS011;17139;52.140;11.636;2023-03-12T12:43:36;1.65;;;1.55;;
9424;SDS011;17139;52.140;11.636;2023-03-12T12:46:05;1.83;;;1.73;;
9424;SDS011;17139;52.140;11.636;2023-03-12T12:48:37;4.03;;;1.43;;
9424;SDS011;17139;52.140;11.636;2023-03-12T12:51:06;1.13;;;1.13;;
9424;SDS011;17139;52.140;11.636;2023-03-12T12:53:36;1.33;;;1.23;;
9424;SDS011;17139;52.140;11.636;2023-03-12T12:56:10;0.90;;;0.90;;
9424;SDS011;17139;52.140;11.636;2023-03-12T12:58:52;0.80;;;0.80;;
9424;SDS011;17139;52.140;11.636;2023-03-12T13:01:30;0.60;;;0.60;;
9424;SDS011;17139;52.140;11.636;2023-03-12T13:04:01;1.27;;;1.17;;
9424;SDS011;17139;52.140;11.636;2023-03-12T13:09:20;1.23;;;1.20;;
9424;SDS011;17139;52.140;11.636;2023-03-12T13:11:48;1.92;;;1.38;;
9424;SDS011;17139;52.140;11.636;2023-03-12T13:14:20;1.20;;;1.20;;
9424;SDS011;17139;52.140;11.636;2023-03-12T13:19:56;1.10;;;1.00;;
9424;SDS011;17139;52.140;11.636;2023-03-12T13:22:29;1.40;;;1.40;;
9424;SDS011;17139;52.140;11.636;2023-03-12T13:25:14;1.77;;;1.33;;
9424;SDS011;17139;52.140;11.636;2023-03-12T13:27:57;2.40;;;1.37;;
9424;SDS011;17139;52.140;11.636;2023-03-12T13:30:44;1.33;;;1.33;;
9424;SDS011;17139;52.140;11.636;2023-03-12T13:33:14;1.83;;;1.20;;
9424;SDS011;17139;52.140;11.636;2023-03-12T13:35:48;3.20;;;1.95;;
9424;SDS011;17139;52.140;11.636;2023-03-12T13:38:33;2.43;;;1.53;;
9424;SDS011;17139;52.140;11.636;2023-03-12T13:41:03;1.70;;;1.60;;
9424;SDS011;17139;52.140;11.636;2023-03-12T13:43:46;1.50;;;1.40;;
9424;SDS011;17139;52.140;11.636;2023-03-12T13:49:10;1.10;;;1.10;;
9424;SDS011;17139;52.140;11.636;2023-03-12T13:51:45;1.40;;;1.40;;
9424;SDS011;17139;52.140;11.636;2023-03-12T13:54:26;2.77;;;1.70;;
9424;SDS011;17139;52.140;11.636;2023-03-12T13:56:57;1.70;;;1.60;;
9424;SDS011;17139;52.140;11.636;2023-03-12T13:59:26;3.13;;;1.87;;
9424;SDS011;17139;52.140;11.636;2023-03-12T14:01:56;2.33;;;2.22;;
9424;SDS011;17139;52.140;11.636;2023-03-12T14:04:29;1.60;;;1.60;;
9424;SDS011;17139;52.140;11.636;2023-03-12T14:07:10;1.57;;;1.47;;
9424;SDS011;17139;52.140;11.636;2023-03-12T14:09:55;1.47;;;1.40;;
9424;SDS011;17139;52.140;11.636;2023-03-12T14:12:30;2.40;;;1.93;;
9424;SDS011;17139;52.140;11.636;2023-03-12T14:15:13;1.10;;;1.10;;
9424;SDS011;17139;52.140;11.636;2023-03-12T14:17:51;1.57;;;1.47;;
9424;SDS011;17139;52.140;11.636;2023-03-12T14:20:21;1.30;;;1.20;;
9424;SDS011;17139;52.140;11.636;2023-03-12T14:22:51;1.40;;;1.33;;
9424;SDS011;17139;52.140;11.636;2023-03-12T14:25:24;2.80;;;1.50;;
9424;SDS011;17139;52.140;11.636;2023-03-12T14:27:58;3.17;;;2.15;;
9424;SDS011;17139;52.140;11.636;2023-03-12T14:30:29;1.60;;;1.50;;
9424;SDS011;17139;52.140;11.636;2023-03-12T14:33:04;1.30;;;1.30;;
9424;SDS011;17139;52.140;11.636;2023-03-12T14:35:36;2.80;;;1.87;;
9424;SDS011;17139;52.140;11.636;2023-03-12T14:38:12;1.00;;;1.00;;
9424;SDS011;17139;52.140;11.636;2023-03-12T14:40:44;1.60;;;1.50;;
9424;SDS011;17139;52.140;11.636;2023-03-12T14:43:19;1.70;;;1.70;;
9424;SDS011;17139;52.140;11.636;2023-03-12T14:45:48;1.67;;;1.67;;
9424;SDS011;17139;52.140;11.636;2023-03-12T14:48:19;1.63;;;1.53;;
9424;SDS011;17139;52.140;11.636;2023-03-12T14:50:47;1.40;;;1.40;;
9424;SDS011;17139;52.140;11.636;2023-03-12T14:53:18;2.00;;;1.90;;
9424;SDS011;17139;52.140;11.636;2023-03-12T14:55:57;2.20;;;1.73;;
9424;SDS011;17139;52.140;11.636;2023-03-12T14:58:32;3.40;;;2.03;;
9424;SDS011;17139;52.140;11.636;2023-03-12T15:01:01;1.40;;;1.40;;
9424;SDS011;17139;52.140;11.636;2023-03-12T15:03:30;1.63;;;1.53;;
9424;SDS011;17139;52.140;11.636;2023-03-12T15:06:01;1.40;;;1.33;;
9424;SDS011;17139;52.140;11.636;2023-03-12T15:08:30;4.80;;;1.70;;
9424;SDS011;17139;52.140;11.636;2023-03-12T15:10:59;1.53;;;1.53;;
9424;SDS011;17139;52.140;11.636;2023-03-12T15:13:26;1.98;;;1.88;;
9424;SDS011;17139;52.140;11.636;2023-03-12T15:15:54;2.20;;;2.10;;